Fort Davis, Alabama
Current Conditions -  °F | °C
As of 11:35 AM on Thursday 23 Oct 2014 (Local Time) from KAUO Reporting Station
Clear Clear  
Wind Chill: 61°   Ceiling: Unl
Heat Index: 61°   Visibility: 10mi
Dew Point: 43°   Wind: 5mph
Humidity: 52%   Direction: 350°N
Pressure: 30.16"   Gusts: NA
Location:  32.24°N, 85.71°W
Report Text: KAUO 231635Z AUTO 35004KT 10SM CLR 16/06 A3016 RMK AO1
Loading
Personal Weather Stations






























Interactive Weather Map
Tropical Storm Tracking
New forecast layout! Learn more

10-Day Weather Forecast

Advertisements
Track Severe Weather on mobile